Peru, Indiana
Current Conditions -  °F | °C
As of 10:58 AM on Wednesday 26 Nov 2014 (Local Time) from KGUS Reporting Station
Overcast Overcast  
Wind Chill: -8°   Ceiling: 1300
Heat Index: -3°   Visibility: 10mi
Dew Point: -4°   Wind: 10mph
Humidity: 90%   Direction: 120°ESE
Pressure: 30.13"   Gusts: NA
Location:  40.75°N, 86.07°W
Report Text: KGUS 261558Z AUTO 12009KT 10SM OVC013 M03/M04 A3013 RMK AO2 SLP217 T10291043
Loading
Personal Weather Stations






























Interactive Weather Map New forecast layout! Learn more

10-Day Weather Forecast

Advertisements
Track Severe Weather on mobile